Time;durP1;ratioP1;P1;durP2;ratioP2;P2;SDS_P1;SDS_P2;PMS_P1;PMS_P2;Temp;Humidity;BMP_temperature;BMP_pressure;BME280_temperature;BME280_humidity;BME280_pressure;Samples;Min_cycle;Max_cycle;Signal;HPM_P1;HPM_P2
2022/03/11 00:01:13;;;;;;;17.83;12.02;;;;;;;;;;5024340;28;20117;-83
2022/03/11 00:03:39;;;;;;;17.67;12.13;;;;;;;;;;5014586;28;20289;-82
2022/03/11 00:06:05;;;;;;;18.30;12.63;;;;;;;;;;5008100;28;20037;-83
2022/03/11 00:08:31;;;;;;;17.52;11.70;;;;;;;;;;5022455;28;20128;-82
2022/03/11 00:10:57;;;;;;;16.77;11.63;;;;;;;;;;5007733;28;20084;-82
2022/03/11 00:13:24;;;;;;;18.35;11.65;;;;;;;;;;5014248;28;20125;-82
2022/03/11 00:15:50;;;;;;;17.52;10.52;;;;;;;;;;5007664;28;20057;-82
2022/03/11 00:18:16;;;;;;;17.20;11.38;;;;;;;;;;5008857;28;20100;-83
2022/03/11 00:20:42;;;;;;;15.57;11.07;;;;;;;;;;5022444;28;20552;-83
2022/03/11 00:23:08;;;;;;;17.08;10.07;;;;;;;;;;5033422;28;20098;-83
2022/03/11 00:25:35;;;;;;;19.10;11.43;;;;;;;;;;5023926;28;20050;-83
2022/03/11 00:28:01;;;;;;;17.20;11.30;;;;;;;;;;5021237;28;20307;-82
2022/03/11 00:30:28;;;;;;;16.27;11.10;;;;;;;;;;5008784;28;20073;-82
2022/03/11 00:32:54;;;;;;;14.70;10.35;;;;;;;;;;5007437;28;20131;-83
2022/03/11 00:35:21;;;;;;;15.18;10.05;;;;;;;;;;5000400;28;20513;-83
2022/03/11 00:37:47;;;;;;;19.45;10.32;;;;;;;;;;5007434;28;20050;-83
2022/03/11 00:40:13;;;;;;;15.52;10.40;;;;;;;;;;5023921;28;20038;-83
2022/03/11 00:42:39;;;;;;;15.98;9.38;;;;;;;;;;4998830;28;20037;-82
2022/03/11 00:45:06;;;;;;;16.83;10.27;;;;;;;;;;5015517;28;20048;-83
2022/03/11 00:47:32;;;;;;;16.17;9.48;;;;;;;;;;5039364;28;20045;-82
2022/03/11 00:49:58;;;;;;;15.32;10.40;;;;;;;;;;5007930;28;20061;-82
2022/03/11 00:52:24;;;;;;;18.52;10.65;;;;;;;;;;5027069;28;20045;-82
2022/03/11 00:54:50;;;;;;;17.75;10.18;;;;;;;;;;5016176;28;20048;-83
2022/03/11 00:57:16;;;;;;;17.75;10.18;;;;;;;;;;5021672;28;20560;-81
2022/03/11 00:59:42;;;;;;;15.20;9.80;;;;;;;;;;5010856;28;20486;-83
2022/03/11 01:02:08;;;;;;;15.05;9.63;;;;;;;;;;5020586;28;20489;-83
2022/03/11 01:04:34;;;;;;;19.15;10.77;;;;;;;;;;5017532;28;20041;-82
2022/03/11 01:07:00;;;;;;;15.00;9.38;;;;;;;;;;5013061;28;20049;-82
2022/03/11 01:09:26;;;;;;;16.88;10.10;;;;;;;;;;5023334;28;20512;-82
2022/03/11 01:11:52;;;;;;;17.50;8.95;;;;;;;;;;5029471;28;20045;-82
2022/03/11 01:14:18;;;;;;;14.90;9.73;;;;;;;;;;5017694;28;20049;-83
2022/03/11 01:16:45;;;;;;;15.07;10.63;;;;;;;;;;5023092;28;20394;-83
2022/03/11 01:19:11;;;;;;;15.10;9.30;;;;;;;;;;5027999;28;20123;-83
2022/03/11 01:21:37;;;;;;;15.55;10.10;;;;;;;;;;5025844;28;20449;-82
2022/03/11 01:24:03;;;;;;;16.50;11.05;;;;;;;;;;5035829;28;20044;-84
2022/03/11 01:26:29;;;;;;;16.85;10.65;;;;;;;;;;5027297;28;20038;-83
2022/03/11 01:28:55;;;;;;;15.18;10.23;;;;;;;;;;5010516;28;20064;-83
2022/03/11 01:31:21;;;;;;;15.20;9.98;;;;;;;;;;5026503;28;20046;-83
2022/03/11 01:33:47;;;;;;;16.25;10.93;;;;;;;;;;5018585;28;20433;-82
2022/03/11 01:36:14;;;;;;;15.40;10.10;;;;;;;;;;5018841;28;20125;-83
2022/03/11 01:38:40;;;;;;;16.63;10.38;;;;;;;;;;5042414;28;20041;-82
2022/03/11 01:41:07;;;;;;;14.82;10.00;;;;;;;;;;5013881;28;20451;-81
2022/03/11 01:43:50;;;;;;;16.27;10.45;;;;;;;;;;5023229;28;20041;-83
2022/03/11 01:46:16;;;;;;;15.57;10.15;;;;;;;;;;5040360;28;20244;-82
2022/03/11 01:48:42;;;;;;;16.77;10.43;;;;;;;;;;5014153;28;20121;-83
2022/03/11 01:51:08;;;;;;;15.13;10.30;;;;;;;;;;5026656;28;20050;-83
2022/03/11 01:53:34;;;;;;;17.33;10.73;;;;;;;;;;5015703;28;20528;-82
2022/03/11 01:56:00;;;;;;;15.82;11.05;;;;;;;;;;5010108;28;20050;-83
2022/03/11 01:58:27;;;;;;;17.98;11.77;;;;;;;;;;5022361;28;20034;-84
2022/03/11 02:00:53;;;;;;;16.98;10.40;;;;;;;;;;5016228;28;20037;-84
2022/03/11 02:03:18;;;;;;;17.05;11.10;;;;;;;;;;5021820;28;20053;-83
2022/03/11 02:05:44;;;;;;;17.42;12.00;;;;;;;;;;5017216;28;20413;-84
2022/03/11 02:08:10;;;;;;;17.50;12.30;;;;;;;;;;5017518;28;20143;-83
2022/03/11 02:10:36;;;;;;;16.98;11.82;;;;;;;;;;5010177;28;20048;-84
2022/03/11 02:13:06;;;;;;;23.15;12.32;;;;;;;;;;5026271;28;20046;-84
2022/03/11 02:15:32;;;;;;;20.17;12.25;;;;;;;;;;5021306;28;20046;-84
2022/03/11 02:17:58;;;;;;;17.27;10.93;;;;;;;;;;5014138;28;20131;-84
2022/03/11 02:20:24;;;;;;;18.80;12.18;;;;;;;;;;5042553;28;20046;-84
2022/03/11 02:22:52;;;;;;;17.50;11.43;;;;;;;;;;5016640;28;20485;-83
2022/03/11 02:25:18;;;;;;;19.45;13.05;;;;;;;;;;5029645;28;20049;-84
2022/03/11 02:27:46;;;;;;;18.80;12.65;;;;;;;;;;5025725;28;20096;-83
2022/03/11 02:30:20;;;;;;;19.95;13.68;;;;;;;;;;5012348;28;20041;-83
2022/03/11 02:32:46;;;;;;;25.98;13.02;;;;;;;;;;5022018;28;20468;-83
2022/03/11 02:35:12;;;;;;;21.52;13.20;;;;;;;;;;5025975;28;20045;-83
2022/03/11 02:37:38;;;;;;;21.90;14.35;;;;;;;;;;5041240;28;20526;-83
2022/03/11 02:40:05;;;;;;;24.55;14.48;;;;;;;;;;5013302;28;20095;-84
2022/03/11 02:42:31;;;;;;;20.33;13.93;;;;;;;;;;5022454;28;20088;-84
2022/03/11 02:45:01;;;;;;;22.10;13.27;;;;;;;;;;5036992;28;20251;-84
2022/03/11 02:47:27;;;;;;;21.08;14.25;;;;;;;;;;5014046;28;20043;-83
2022/03/11 02:49:53;;;;;;;23.02;14.88;;;;;;;;;;5025649;28;20049;-84
2022/03/11 02:52:19;;;;;;;23.45;15.88;;;;;;;;;;5016139;28;20060;-84
2022/03/11 02:54:45;;;;;;;24.40;16.17;;;;;;;;;;5018558;28;20045;-83
2022/03/11 02:57:11;;;;;;;25.10;16.13;;;;;;;;;;5039996;28;20042;-83
2022/03/11 02:59:37;;;;;;;24.92;16.70;;;;;;;;;;5027079;28;20110;-84
2022/03/11 03:02:03;;;;;;;25.23;16.00;;;;;;;;;;5014966;28;20132;-84
2022/03/11 03:04:30;;;;;;;22.90;16.40;;;;;;;;;;5019110;28;20038;-84
2022/03/11 03:06:56;;;;;;;24.48;16.70;;;;;;;;;;5022582;28;20046;-82
2022/03/11 03:09:22;;;;;;;23.67;15.40;;;;;;;;;;5012687;28;20037;-82
2022/03/11 03:11:48;;;;;;;27.00;16.17;;;;;;;;;;5025251;28;20048;-84
2022/03/11 03:14:14;;;;;;;27.60;17.55;;;;;;;;;;5014628;28;20041;-83
2022/03/11 03:16:40;;;;;;;24.08;16.60;;;;;;;;;;5008767;28;20450;-84
2022/03/11 03:19:06;;;;;;;28.40;18.58;;;;;;;;;;5024593;28;20089;-82
2022/03/11 03:21:32;;;;;;;24.55;16.23;;;;;;;;;;5013215;28;20072;-84
2022/03/11 03:23:58;;;;;;;27.55;18.13;;;;;;;;;;5025107;28;20038;-84
2022/03/11 03:26:24;;;;;;;26.00;17.95;;;;;;;;;;5004114;28;20497;-84
2022/03/11 03:28:51;;;;;;;27.98;18.85;;;;;;;;;;5012614;28;20493;-83
2022/03/11 03:31:19;;;;;;;29.02;17.80;;;;;;;;;;5041416;28;20054;-84
2022/03/11 03:33:45;;;;;;;27.75;18.70;;;;;;;;;;5032424;28;20054;-83
2022/03/11 03:36:11;;;;;;;24.88;16.63;;;;;;;;;;5016562;28;20042;-84
2022/03/11 03:38:37;;;;;;;29.77;17.75;;;;;;;;;;5022688;28;20041;-83
2022/03/11 03:41:03;;;;;;;28.58;17.77;;;;;;;;;;5012149;28;20120;-84
2022/03/11 03:43:29;;;;;;;27.85;20.05;;;;;;;;;;5021013;28;20049;-83
2022/03/11 03:45:55;;;;;;;31.30;20.00;;;;;;;;;;5035511;28;20108;-84
2022/03/11 03:48:21;;;;;;;28.23;18.80;;;;;;;;;;5013787;28;20042;-84
2022/03/11 03:50:47;;;;;;;29.73;19.45;;;;;;;;;;5040921;28;20041;-84
2022/03/11 03:53:13;;;;;;;30.75;21.05;;;;;;;;;;5030837;28;20099;-84
2022/03/11 03:55:39;;;;;;;30.02;20.13;;;;;;;;;;5024512;28;20107;-84
2022/03/11 03:58:05;;;;;;;29.63;18.83;;;;;;;;;;5005235;28;20599;-83
2022/03/11 04:00:31;;;;;;;30.05;20.67;;;;;;;;;;5011520;28;20034;-83
2022/03/11 04:02:57;;;;;;;30.13;20.08;;;;;;;;;;5024459;28;20467;-84
2022/03/11 04:05:23;;;;;;;29.58;19.48;;;;;;;;;;5013683;28;20069;-84
2022/03/11 04:07:49;;;;;;;26.77;19.10;;;;;;;;;;5007993;28;20072;-84
2022/03/11 04:10:17;;;;;;;34.72;22.15;;;;;;;;;;5007413;28;20120;-83
2022/03/11 04:12:43;;;;;;;30.77;21.33;;;;;;;;;;5028969;28;20436;-84
2022/03/11 04:15:10;;;;;;;31.15;21.13;;;;;;;;;;5019030;28;20460;-84
2022/03/11 04:17:36;;;;;;;29.95;20.27;;;;;;;;;;5036671;28;20053;-83
2022/03/11 04:20:02;;;;;;;32.05;20.35;;;;;;;;;;5011745;28;20345;-85
2022/03/11 04:22:28;;;;;;;33.20;21.88;;;;;;;;;;5028508;28;20049;-83
2022/03/11 04:24:55;;;;;;;30.30;20.50;;;;;;;;;;5019991;28;20113;-84
2022/03/11 04:27:21;;;;;;;33.80;20.75;;;;;;;;;;5036026;28;20143;-84
2022/03/11 04:29:47;;;;;;;33.38;21.45;;;;;;;;;;5027415;28;20492;-84
2022/03/11 04:32:13;;;;;;;32.00;21.10;;;;;;;;;;5011348;28;20440;-84
2022/03/11 04:34:39;;;;;;;32.00;22.25;;;;;;;;;;5023212;28;20049;-86
2022/03/11 04:37:05;;;;;;;31.67;20.42;;;;;;;;;;5016500;28;20057;-85
2022/03/11 04:39:31;;;;;;;31.73;21.90;;;;;;;;;;5039047;28;20230;-85
2022/03/11 04:41:57;;;;;;;31.08;20.92;;;;;;;;;;5011429;28;20045;-83
2022/03/11 04:44:23;;;;;;;32.47;22.50;;;;;;;;;;5020929;28;20042;-84
2022/03/11 04:46:50;;;;;;;31.75;20.70;;;;;;;;;;5034125;28;20042;-84
2022/03/11 04:49:15;;;;;;;30.15;20.08;;;;;;;;;;5013985;28;20128;-84
2022/03/11 04:51:42;;;;;;;33.67;23.10;;;;;;;;;;5044144;28;20124;-83
2022/03/11 04:54:08;;;;;;;30.38;20.52;;;;;;;;;;5033725;28;20489;-82
2022/03/11 04:56:34;;;;;;;31.60;20.88;;;;;;;;;;5021976;28;20128;-84
2022/03/11 04:59:00;;;;;;;32.42;22.48;;;;;;;;;;5040963;28;20183;-85
2022/03/11 05:01:26;;;;;;;35.22;21.90;;;;;;;;;;5014075;28;20050;-84
2022/03/11 05:03:52;;;;;;;32.88;21.50;;;;;;;;;;5011403;28;20129;-84
2022/03/11 05:06:18;;;;;;;34.90;22.02;;;;;;;;;;5020266;28;20103;-83
2022/03/11 05:08:44;;;;;;;32.65;21.75;;;;;;;;;;5018538;28;20050;-83
2022/03/11 05:11:11;;;;;;;32.58;21.65;;;;;;;;;;5027073;28;20037;-83
2022/03/11 05:13:37;;;;;;;32.85;21.58;;;;;;;;;;5031772;28;20041;-83
2022/03/11 05:16:03;;;;;;;34.90;21.75;;;;;;;;;;5023276;28;20417;-84
2022/03/11 05:18:29;;;;;;;30.80;19.42;;;;;;;;;;5022589;28;20464;-83
2022/03/11 05:20:55;;;;;;;32.50;21.58;;;;;;;;;;5027795;28;20129;-83
2022/03/11 05:23:21;;;;;;;35.47;21.38;;;;;;;;;;5026869;28;20045;-84
2022/03/11 05:25:48;;;;;;;35.95;21.52;;;;;;;;;;5015138;28;20042;-83
2022/03/11 05:28:14;;;;;;;35.08;21.33;;;;;;;;;;5010817;28;20076;-83
2022/03/11 05:30:40;;;;;;;35.58;22.05;;;;;;;;;;5022343;28;20037;-83
2022/03/11 05:33:06;;;;;;;32.35;21.08;;;;;;;;;;5013391;28;20045;-83
2022/03/11 05:35:32;;;;;;;35.67;22.30;;;;;;;;;;5027491;28;20046;-82
2022/03/11 05:37:59;;;;;;;34.38;21.35;;;;;;;;;;5017779;28;20513;-83
2022/03/11 05:40:25;;;;;;;33.30;21.33;;;;;;;;;;5010697;28;20417;-83
2022/03/11 05:42:51;;;;;;;34.10;21.42;;;;;;;;;;5025577;28;20038;-84
2022/03/11 05:45:17;;;;;;;33.38;21.83;;;;;;;;;;5000004;28;20365;-83
2022/03/11 05:47:43;;;;;;;32.38;21.25;;;;;;;;;;5021449;28;20057;-83
2022/03/11 05:50:09;;;;;;;32.17;21.70;;;;;;;;;;5010740;28;20042;-84
2022/03/11 05:52:36;;;;;;;31.83;21.00;;;;;;;;;;5011821;28;20064;-83
2022/03/11 05:55:03;;;;;;;29.75;19.83;;;;;;;;;;5030057;28;20038;-84
2022/03/11 05:57:29;;;;;;;34.95;22.05;;;;;;;;;;5020740;28;20430;-84
2022/03/11 05:59:55;;;;;;;30.88;20.80;;;;;;;;;;5039585;28;20120;-84
2022/03/11 06:02:21;;;;;;;31.55;20.90;;;;;;;;;;5013056;28;20033;-83
2022/03/11 06:04:47;;;;;;;34.72;21.85;;;;;;;;;;5026880;28;20049;-83
2022/03/11 06:07:13;;;;;;;33.97;21.48;;;;;;;;;;5010149;28;20111;-83
2022/03/11 06:09:39;;;;;;;31.33;19.98;;;;;;;;;;5010317;28;20089;-82
2022/03/11 06:12:06;;;;;;;31.73;20.67;;;;;;;;;;5023123;28;20545;-86
2022/03/11 06:14:32;;;;;;;34.55;21.88;;;;;;;;;;5010077;28;20073;-82
2022/03/11 06:16:58;;;;;;;32.80;21.58;;;;;;;;;;5014368;28;20052;-85
2022/03/11 06:19:24;;;;;;;32.90;21.17;;;;;;;;;;5010327;28;20054;-84
2022/03/11 06:21:50;;;;;;;34.20;20.73;;;;;;;;;;5021783;28;20120;-84
2022/03/11 06:24:16;;;;;;;34.75;20.92;;;;;;;;;;5012889;28;20048;-85
2022/03/11 06:26:42;;;;;;;32.10;21.45;;;;;;;;;;5022918;28;20044;-83
2022/03/11 06:29:10;;;;;;;33.25;20.98;;;;;;;;;;5012321;28;20412;-84
2022/03/11 06:31:36;;;;;;;31.23;19.75;;;;;;;;;;5024641;28;20160;-83
2022/03/11 06:34:02;;;;;;;31.90;20.80;;;;;;;;;;5022299;28;20034;-84
2022/03/11 06:36:28;;;;;;;31.67;21.00;;;;;;;;;;5027932;28;20546;-85
2022/03/11 06:38:55;;;;;;;32.63;22.00;;;;;;;;;;5028183;28;20038;-84
2022/03/11 06:41:22;;;;;;;35.30;21.60;;;;;;;;;;5031494;28;20566;-84
2022/03/11 06:43:48;;;;;;;32.40;20.73;;;;;;;;;;5031655;28;20096;-83
2022/03/11 06:46:14;;;;;;;31.88;20.85;;;;;;;;;;5031647;28;20072;-82
2022/03/11 06:48:40;;;;;;;31.80;20.38;;;;;;;;;;5021863;28;20204;-84
2022/03/11 06:51:06;;;;;;;31.25;20.55;;;;;;;;;;5008645;28;20128;-83
2022/03/11 06:53:33;;;;;;;32.90;21.08;;;;;;;;;;5036383;28;20080;-82
2022/03/11 06:56:00;;;;;;;31.77;20.92;;;;;;;;;;5014969;28;20064;-83
2022/03/11 06:58:27;;;;;;;30.10;19.42;;;;;;;;;;5025958;28;20559;-83
2022/03/11 07:00:53;;;;;;;31.10;20.25;;;;;;;;;;5017741;28;20058;-83
2022/03/11 07:03:19;;;;;;;48.85;28.50;;;;;;;;;;5025010;28;20045;-84
2022/03/11 07:05:45;;;;;;;35.45;21.23;;;;;;;;;;5035427;28;20404;-84
2022/03/11 07:08:12;;;;;;;35.38;24.02;;;;;;;;;;5038619;28;20037;-83
2022/03/11 07:10:38;;;;;;;29.88;20.48;;;;;;;;;;5052022;28;20490;-83
2022/03/11 07:13:04;;;;;;;29.55;19.48;;;;;;;;;;5021506;28;20045;-85
2022/03/11 07:15:30;;;;;;;30.35;20.63;;;;;;;;;;5037225;28;20041;-83
2022/03/11 07:17:56;;;;;;;31.45;19.75;;;;;;;;;;5055942;28;20053;-84
2022/03/11 07:20:22;;;;;;;35.75;25.90;;;;;;;;;;5051866;28;20056;-81
2022/03/11 07:22:48;;;;;;;44.30;36.83;;;;;;;;;;5037842;28;20041;-83
2022/03/11 07:25:15;;;;;;;33.55;21.10;;;;;;;;;;5053282;28;20494;-82
2022/03/11 07:27:41;;;;;;;30.42;20.10;;;;;;;;;;5034261;28;20576;-84
2022/03/11 07:30:09;;;;;;;30.75;19.55;;;;;;;;;;5034303;28;20049;-86
2022/03/11 07:32:35;;;;;;;29.50;18.80;;;;;;;;;;5042438;28;20041;-82
2022/03/11 07:35:01;;;;;;;33.70;22.73;;;;;;;;;;5034745;28;20033;-84
2022/03/11 07:37:27;;;;;;;31.58;19.98;;;;;;;;;;5051773;28;20041;-82
2022/03/11 07:39:53;;;;;;;30.23;19.25;;;;;;;;;;5054077;28;20090;-85
2022/03/11 07:42:19;;;;;;;29.67;19.75;;;;;;;;;;5019348;28;20041;-83
2022/03/11 07:44:45;;;;;;;30.27;19.90;;;;;;;;;;5031934;28;20382;-87
2022/03/11 07:47:11;;;;;;;30.23;20.45;;;;;;;;;;5030389;28;20122;-83
2022/03/11 07:49:37;;;;;;;32.03;19.92;;;;;;;;;;5033343;28;20029;-86
2022/03/11 07:52:03;;;;;;;29.23;19.25;;;;;;;;;;5039368;28;20570;-82
2022/03/11 07:54:29;;;;;;;29.20;20.17;;;;;;;;;;5035860;28;20043;-83
2022/03/11 07:56:55;;;;;;;28.75;18.77;;;;;;;;;;5026908;28;20045;-84
2022/03/11 07:59:21;;;;;;;30.27;19.85;;;;;;;;;;5034584;28;20038;-86
2022/03/11 08:01:47;;;;;;;30.92;19.38;;;;;;;;;;5059485;28;20349;-84
2022/03/11 08:04:13;;;;;;;28.60;18.45;;;;;;;;;;5031958;28;20044;-85
2022/03/11 08:06:40;;;;;;;28.42;18.17;;;;;;;;;;5032879;28;20033;-82
2022/03/11 08:09:06;;;;;;;27.85;19.30;;;;;;;;;;5007825;28;20042;-85
2022/03/11 08:11:32;;;;;;;28.88;18.92;;;;;;;;;;5027320;28;20543;-84
2022/03/11 08:13:58;;;;;;;27.98;18.60;;;;;;;;;;5017569;28;20037;-82
2022/03/11 08:16:24;;;;;;;27.90;18.42;;;;;;;;;;5033966;28;20112;-83
2022/03/11 08:18:50;;;;;;;30.75;19.48;;;;;;;;;;5033729;28;20046;-85
2022/03/11 08:21:19;;;;;;;29.60;18.25;;;;;;;;;;5033330;28;20504;-85
2022/03/11 08:23:45;;;;;;;31.35;19.70;;;;;;;;;;5022555;28;20037;-83
2022/03/11 08:26:11;;;;;;;29.58;18.83;;;;;;;;;;5011398;28;20048;-83
2022/03/11 08:28:38;;;;;;;31.65;18.85;;;;;;;;;;5024822;28;20050;-84
2022/03/11 08:31:04;;;;;;;28.13;18.88;;;;;;;;;;5019460;28;20053;-84
2022/03/11 08:33:30;;;;;;;32.47;19.00;;;;;;;;;;5027949;28;20087;-83
2022/03/11 08:35:57;;;;;;;28.65;19.13;;;;;;;;;;5011811;28;20042;-82
2022/03/11 08:38:23;;;;;;;29.73;18.85;;;;;;;;;;5038440;28;20042;-85
2022/03/11 08:40:49;;;;;;;28.77;19.15;;;;;;;;;;5018425;28;20041;-83
2022/03/11 08:43:15;;;;;;;27.20;18.00;;;;;;;;;;5024677;28;20038;-85
2022/03/11 08:45:42;;;;;;;27.27;18.23;;;;;;;;;;5022054;28;20041;-83
2022/03/11 08:48:08;;;;;;;29.48;19.67;;;;;;;;;;5010738;28;20128;-84
2022/03/11 08:50:34;;;;;;;28.52;18.52;;;;;;;;;;5026557;28;20045;-85
2022/03/11 08:53:00;;;;;;;27.85;19.33;;;;;;;;;;5017309;28;20063;-84
2022/03/11 08:55:27;;;;;;;28.83;18.50;;;;;;;;;;5011371;28;20045;-84
2022/03/11 08:57:53;;;;;;;28.50;19.23;;;;;;;;;;5012848;28;20041;-83
2022/03/11 09:00:20;;;;;;;28.23;18.85;;;;;;;;;;5027051;28;20103;-83
2022/03/11 09:02:46;;;;;;;30.48;19.38;;;;;;;;;;5052011;28;20052;-82
2022/03/11 09:05:13;;;;;;;27.27;17.35;;;;;;;;;;5027661;28;20413;-85
2022/03/11 09:07:39;;;;;;;28.33;18.83;;;;;;;;;;5034625;28;20049;-85
2022/03/11 09:10:07;;;;;;;27.48;19.25;;;;;;;;;;5034218;28;20476;-86
2022/03/11 09:12:33;;;;;;;26.42;17.77;;;;;;;;;;5054503;28;20038;-85
2022/03/11 09:14:59;;;;;;;27.52;18.40;;;;;;;;;;5007671;28;20038;-83
2022/03/11 09:17:25;;;;;;;27.20;18.40;;;;;;;;;;4992616;28;20060;-86
2022/03/11 09:19:51;;;;;;;27.95;17.55;;;;;;;;;;5007419;28;20129;-83
2022/03/11 09:22:17;;;;;;;27.95;17.77;;;;;;;;;;5007887;28;20041;-86
2022/03/11 09:24:46;;;;;;;26.67;17.85;;;;;;;;;;5020271;28;20090;-82
2022/03/11 09:27:13;;;;;;;29.35;19.10;;;;;;;;;;5002596;28;20490;-84
2022/03/11 09:29:40;;;;;;;27.35;18.00;;;;;;;;;;5014259;28;20053;-82
2022/03/11 09:32:07;;;;;;;25.35;18.38;;;;;;;;;;5017900;28;20050;-83
2022/03/11 09:34:33;;;;;;;25.67;17.65;;;;;;;;;;5016145;28;20221;-83
2022/03/11 09:36:59;;;;;;;26.05;17.80;;;;;;;;;;5018612;28;20076;-84
2022/03/11 09:39:25;;;;;;;25.73;18.08;;;;;;;;;;5026972;28;20045;-82
2022/03/11 09:41:51;;;;;;;25.35;18.05;;;;;;;;;;5015349;28;20395;-86
2022/03/11 09:44:18;;;;;;;26.85;18.35;;;;;;;;;;5024868;28;20056;-86
2022/03/11 09:46:45;;;;;;;24.42;17.80;;;;;;;;;;5019105;28;20064;-84
2022/03/11 09:49:12;;;;;;;25.15;17.35;;;;;;;;;;5015919;28;20057;-83
2022/03/11 09:51:40;;;;;;;24.25;17.02;;;;;;;;;;5022913;28;20096;-85
2022/03/11 09:54:06;;;;;;;25.85;18.67;;;;;;;;;;5025139;28;20559;-84
2022/03/11 09:56:35;;;;;;;25.67;17.65;;;;;;;;;;5029956;28;20081;-84
2022/03/11 09:59:01;;;;;;;26.02;17.38;;;;;;;;;;5016857;28;20056;-85
2022/03/11 10:01:27;;;;;;;25.85;19.05;;;;;;;;;;5020585;28;20042;-91
2022/03/11 10:03:53;;;;;;;23.88;18.13;;;;;;;;;;5024104;28;20048;-82
2022/03/11 10:06:39;;;;;;;25.55;18.35;;;;;;;;;;5028298;28;20179;-85
2022/03/11 10:09:05;;;;;;;24.10;17.48;;;;;;;;;;5028854;28;20046;-84
2022/03/11 10:11:31;;;;;;;26.33;18.80;;;;;;;;;;5013720;28;20045;-84
2022/03/11 10:14:04;;;;;;;24.63;17.77;;;;;;;;;;5014687;28;20042;-83
2022/03/11 10:16:31;;;;;;;26.55;19.23;;;;;;;;;;5021350;28;20497;-84
2022/03/11 10:18:58;;;;;;;24.40;17.98;;;;;;;;;;5024464;28;20048;-85
2022/03/11 10:21:28;;;;;;;24.77;17.65;;;;;;;;;;5059853;28;20049;-88
2022/03/11 10:23:54;;;;;;;26.83;18.25;;;;;;;;;;5027005;28;20041;-84
2022/03/11 10:26:33;;;;;;;24.63;17.65;;;;;;;;;;5037572;28;20046;-84
2022/03/11 10:28:59;;;;;;;23.55;18.02;;;;;;;;;;5030670;28;20052;-85
2022/03/11 10:31:29;;;;;;;22.85;16.80;;;;;;;;;;5016387;28;20057;-83
2022/03/11 10:34:14;;;;;;;24.02;17.95;;;;;;;;;;5030285;28;20048;-83
2022/03/11 10:37:12;;;;;;;23.00;17.25;;;;;;;;;;5052084;28;20048;-85
2022/03/11 10:39:39;;;;;;;25.13;17.63;;;;;;;;;;5023378;28;20060;-85
2022/03/11 10:42:15;;;;;;;22.90;18.08;;;;;;;;;;5034351;28;20037;-87
2022/03/11 10:44:54;;;;;;;25.02;18.50;;;;;;;;;;5039055;28;20071;-85
2022/03/11 10:47:33;;;;;;;23.40;17.67;;;;;;;;;;5045697;28;20397;-86
2022/03/11 10:50:01;;;;;;;23.42;18.88;;;;;;;;;;5030850;28;20141;-85
2022/03/11 10:52:31;;;;;;;26.13;18.13;;;;;;;;;;5037460;28;20038;-84
2022/03/11 10:54:58;;;;;;;24.92;18.15;;;;;;;;;;5051875;28;20100;-83
2022/03/11 10:57:38;;;;;;;24.02;18.08;;;;;;;;;;5028854;28;20100;-81
2022/03/11 11:00:20;;;;;;;24.65;17.92;;;;;;;;;;5020375;28;20124;-84
2022/03/11 11:02:50;;;;;;;23.38;17.30;;;;;;;;;;5046699;28;20106;-86
2022/03/11 11:05:17;;;;;;;21.90;16.77;;;;;;;;;;5048891;28;20037;-83
2022/03/11 11:07:43;;;;;;;23.25;16.65;;;;;;;;;;5017489;28;20493;-85
2022/03/11 11:10:10;;;;;;;22.17;17.45;;;;;;;;;;5021878;28;20044;-83
2022/03/11 11:12:36;;;;;;;22.48;17.30;;;;;;;;;;4993134;28;20041;-84
2022/03/11 11:15:03;;;;;;;22.70;17.45;;;;;;;;;;5023287;28;20037;-85
2022/03/11 11:17:29;;;;;;;22.48;17.83;;;;;;;;;;5008426;28;20156;-83
2022/03/11 11:19:57;;;;;;;24.70;17.88;;;;;;;;;;5016565;28;20094;-86
2022/03/11 11:22:26;;;;;;;22.70;17.05;;;;;;;;;;5016764;28;20049;-84
2022/03/11 11:24:53;;;;;;;22.42;16.58;;;;;;;;;;5017735;28;20053;-83
2022/03/11 11:27:20;;;;;;;20.63;16.38;;;;;;;;;;5025547;28;20050;-82
2022/03/11 11:29:48;;;;;;;22.30;17.08;;;;;;;;;;5036846;28;20113;-83
2022/03/11 11:32:16;;;;;;;25.13;17.27;;;;;;;;;;5029868;28;20047;-84
2022/03/11 11:34:42;;;;;;;20.45;16.08;;;;;;;;;;5030871;28;20091;-84
2022/03/11 11:37:08;;;;;;;22.00;16.42;;;;;;;;;;5037273;28;20042;-87
2022/03/11 11:39:39;;;;;;;22.48;17.80;;;;;;;;;;5027595;28;20113;-85
2022/03/11 11:42:10;;;;;;;21.10;16.52;;;;;;;;;;5027632;28;20045;-85
2022/03/11 11:44:36;;;;;;;23.00;17.00;;;;;;;;;;5020192;28;20034;-86
2022/03/11 11:47:26;;;;;;;21.30;16.95;;;;;;;;;;5024896;28;20042;-83
2022/03/11 11:49:54;;;;;;;21.40;16.80;;;;;;;;;;5012551;28;20052;-86
2022/03/11 11:52:29;;;;;;;22.35;16.83;;;;;;;;;;5013808;28;20056;-84
2022/03/11 11:55:14;;;;;;;19.77;16.45;;;;;;;;;;5027413;28;20532;-85
2022/03/11 11:57:42;;;;;;;21.80;17.33;;;;;;;;;;5020452;28;20424;-82
2022/03/11 12:00:30;;;;;;;22.17;16.00;;;;;;;;;;5026601;28;20107;-85
2022/03/11 12:02:56;;;;;;;20.33;16.52;;;;;;;;;;5027184;28;20069;-86
2022/03/11 12:05:39;;;;;;;20.52;16.85;;;;;;;;;;5038961;28;20040;-84
2022/03/11 12:08:05;;;;;;;21.52;16.48;;;;;;;;;;5047424;28;20386;-85
2022/03/11 12:10:31;;;;;;;23.55;16.17;;;;;;;;;;5014245;28;20119;-84
2022/03/11 12:12:58;;;;;;;20.58;16.95;;;;;;;;;;5026197;28;20663;-84
2022/03/11 12:15:25;;;;;;;21.73;16.77;;;;;;;;;;5021445;28;20045;-82
2022/03/11 12:17:55;;;;;;;21.98;16.13;;;;;;;;;;5036365;28;20053;-84
2022/03/11 12:20:49;;;;;;;20.02;15.63;;;;;;;;;;5034787;28;20049;-84
2022/03/11 12:23:15;;;;;;;20.95;16.98;;;;;;;;;;5038001;28;20436;-84
2022/03/11 12:25:44;;;;;;;21.08;15.45;;;;;;;;;;5020427;28;20060;-88
2022/03/11 12:28:13;;;;;;;19.85;15.70;;;;;;;;;;5062303;28;20049;-86
2022/03/11 12:30:42;;;;;;;23.15;17.40;;;;;;;;;;5033176;28;20084;-82
2022/03/11 12:33:13;;;;;;;21.75;16.02;;;;;;;;;;5050363;28;20139;-84
2022/03/11 12:35:40;;;;;;;20.33;15.23;;;;;;;;;;5042275;28;20444;-85
2022/03/11 12:38:10;;;;;;;18.02;14.60;;;;;;;;;;5038592;28;20044;-85
2022/03/11 12:40:36;;;;;;;20.35;15.50;;;;;;;;;;5032046;28;20048;-85
2022/03/11 12:43:08;;;;;;;20.25;15.10;;;;;;;;;;5035867;28;20382;-84
2022/03/11 12:45:42;;;;;;;22.52;14.00;;;;;;;;;;5052529;28;20037;-84
2022/03/11 12:48:09;;;;;;;18.63;13.73;;;;;;;;;;5020405;28;20094;-82
2022/03/11 12:50:36;;;;;;;20.85;14.95;;;;;;;;;;5038699;28;20044;-85
2022/03/11 12:53:02;;;;;;;20.80;14.45;;;;;;;;;;5018548;28;20128;-83
2022/03/11 12:55:30;;;;;;;19.92;15.57;;;;;;;;;;5037071;28;20084;-86
2022/03/11 12:57:58;;;;;;;19.27;14.32;;;;;;;;;;5032404;28;20044;-86
2022/03/11 13:00:24;;;;;;;19.38;14.40;;;;;;;;;;5015760;28;20048;-84
2022/03/11 13:02:51;;;;;;;21.00;14.75;;;;;;;;;;5018492;28;20517;-85
2022/03/11 13:05:28;;;;;;;18.83;15.20;;;;;;;;;;5048484;28;20038;-85
2022/03/11 13:07:59;;;;;;;21.00;15.23;;;;;;;;;;5020985;28;20045;-84
2022/03/11 13:10:26;;;;;;;20.90;14.63;;;;;;;;;;4999598;28;20053;-87
2022/03/11 13:12:53;;;;;;;20.55;14.45;;;;;;;;;;5036258;28;20404;-84
2022/03/11 13:15:23;;;;;;;19.23;14.05;;;;;;;;;;5021330;28;20091;-85
2022/03/11 13:17:51;;;;;;;19.45;14.02;;;;;;;;;;5053148;28;20553;-87
2022/03/11 13:20:36;;;;;;;20.80;14.63;;;;;;;;;;5054077;28;20041;-82
2022/03/11 13:23:14;;;;;;;20.35;14.43;;;;;;;;;;5032653;28;20100;-85
2022/03/11 13:25:42;;;;;;;18.83;13.85;;;;;;;;;;5032358;28;20062;-87
2022/03/11 13:28:08;;;;;;;20.35;14.32;;;;;;;;;;5019865;28;20124;-84
2022/03/11 13:30:35;;;;;;;19.75;14.27;;;;;;;;;;5030292;28;20516;-86
2022/03/11 13:33:13;;;;;;;20.70;14.23;;;;;;;;;;5011257;28;20084;-85
2022/03/11 13:35:40;;;;;;;19.23;14.05;;;;;;;;;;5015815;28;20043;-83
2022/03/11 13:38:06;;;;;;;20.40;14.38;;;;;;;;;;5032763;28;20493;-85
2022/03/11 13:40:32;;;;;;;17.63;13.82;;;;;;;;;;5029971;28;20103;-87
2022/03/11 13:43:03;;;;;;;19.77;13.43;;;;;;;;;;5048881;28;20041;-86
2022/03/11 13:45:30;;;;;;;18.80;13.07;;;;;;;;;;5057632;28;20473;-84
2022/03/11 13:48:03;;;;;;;20.40;13.80;;;;;;;;;;5039101;28;20048;-85
2022/03/11 13:50:29;;;;;;;18.23;12.90;;;;;;;;;;5038222;28;20062;-85
2022/03/11 13:52:57;;;;;;;18.42;13.20;;;;;;;;;;5034995;28;20033;-83
2022/03/11 13:55:31;;;;;;;20.00;12.95;;;;;;;;;;5037330;28;20539;-88
2022/03/11 13:58:12;;;;;;;18.33;13.60;;;;;;;;;;5038561;28;20041;-85
2022/03/11 14:00:38;;;;;;;17.58;12.95;;;;;;;;;;5036844;28;20167;-85
2022/03/11 14:03:17;;;;;;;18.70;12.18;;;;;;;;;;5039520;28;20516;-86
2022/03/11 14:05:44;;;;;;;16.85;12.32;;;;;;;;;;5052409;28;20444;-85
2022/03/11 14:08:12;;;;;;;16.77;13.00;;;;;;;;;;5040022;28;20048;-84
2022/03/11 14:10:44;;;;;;;17.23;12.60;;;;;;;;;;5053451;28;20052;-83
2022/03/11 14:13:11;;;;;;;19.10;12.48;;;;;;;;;;5056041;28;20056;-84
2022/03/11 14:15:39;;;;;;;18.45;11.95;;;;;;;;;;5040614;28;20496;-82
2022/03/11 14:18:11;;;;;;;17.40;12.68;;;;;;;;;;5037917;28;20066;-86